EDT,Max TemperatureF,Mean TemperatureF,Min TemperatureF,Max Dew PointF,MeanDew PointF,Min DewpointF,Max Humidity, Mean Humidity, Min Humidity, Max Sea Level PressureIn, Mean Sea Level PressureIn, Min Sea Level PressureIn, Max VisibilityMiles, Mean VisibilityMiles, Min VisibilityMiles, Max Wind SpeedMPH, Mean Wind SpeedMPH, Max Gust SpeedMPH,PrecipitationIn, CloudCover, Events, WindDirDegrees
2013-3-1,51,44,37,34,30,27,75,57,41,29.99,29.94,29.89,10,10,10,12,7,17,0.00,0,,281
2013-3-2,48,40,32,34,31,27,93,71,46,29.96,29.93,29.88,10,10,10,16,7,23,0.00,4,,269
2013-3-3,44,37,30,28,26,21,93,64,43,30.05,29.98,29.93,10,10,10,10,5,,0.00,4,,290
2013-3-4,55,40,26,34,23,18,86,54,23,30.21,30.13,30.05,10,10,10,12,5,16,0.00,0,,287
2013-3-5,64,50,35,55,40,32,100,65,30,30.14,29.97,29.74,10,10,10,17,5,29,0.00,4,Rain,196
2013-3-6,55,46,37,54,27,19,94,50,32,30.12,29.92,29.75,10,10,10,28,15,38,0.00,1,,288
2013-3-7,59,44,30,34,29,28,93,64,31,30.25,30.18,30.13,10,10,7,12,5,17,0.00,0,,320
2013-3-8,60,46,33,32,26,18,93,54,19,30.31,30.25,30.17,10,10,7,14,4,20,0.00,0,,351
2013-3-9,64,48,32,41,31,27,93,56,28,30.34,30.29,30.24,10,10,10,13,3,17,0.00,0,,38
2013-3-10,68,50,33,45,38,32,100,63,34,30.30,30.24,30.20,10,10,7,13,3,17,0.00,0,,124
2013-3-11,71,58,44,59,48,32,100,69,41,30.22,30.06,29.92,10,10,10,16,7,24,0.00,4,,131
2013-3-12,71,61,51,63,55,37,100,78,29,29.98,29.88,29.83,10,10,4,13,9,22,0.00,5,Rain,228
2013-3-13,64,53,42,39,28,21,70,41,20,30.16,30.07,29.99,10,10,10,18,8,29,0.00,0,,301
2013-3-14,55,44,32,30,22,18,81,44,23,30.34,30.24,30.14,10,10,10,12,6,20,0.00,0,,326
2013-3-15,69,50,32,43,32,27,93,60,24,30.26,30.16,30.05,10,10,10,13,3,22,0.00,0,,240
2013-3-16,78,64,50,43,38,36,71,43,21,30.05,29.98,29.88,10,10,10,21,9,30,0.00,0,,238
2013-3-17,77,66,55,52,48,41,88,56,34,30.05,30.01,29.95,10,10,10,14,9,24,0.00,1,,235
2013-3-18,69,62,53,61,56,50,100,86,60,30.08,29.99,29.86,10,9,2,14,4,31,0.00,7,Rain-Thunderstorm,152
2013-3-19,75,63,51,55,44,25,100,63,16,30.03,29.93,29.84,10,10,0,15,6,21,0.00,3,Fog-Rain,302
2013-3-20,62,52,41,37,26,10,81,39,16,30.12,30.00,29.85,10,10,10,14,4,17,0.00,1,,14
2013-3-21,57,46,35,36,20,7,76,40,14,29.97,29.87,29.82,10,10,10,21,9,26,0.00,0,,291
2013-3-22,53,43,33,37,22,14,75,43,28,30.11,30.06,29.97,10,10,10,9,3,,0.00,6,,50
2013-3-23,57,50,42,52,44,36,100,88,54,30.08,29.98,29.88,10,9,3,10,3,,0.00,7,Rain-Thunderstorm,61
2013-3-24,59,52,46,59,51,46,100,100,94,29.89,29.62,29.52,10,8,2,16,7,26,0.00,8,Rain-Thunderstorm,33
2013-3-25,53,48,41,46,30,18,100,55,24,30.00,29.79,29.61,10,10,10,28,10,39,0.00,3,,284
2013-3-26,51,42,33,30,25,23,75,53,33,30.21,30.07,30.00,10,10,10,16,10,25,0.00,2,,285
2013-3-27,59,46,32,32,27,21,87,57,27,30.30,30.24,30.19,10,10,10,14,5,20,0.00,0,,304
2013-3-28,60,46,32,32,27,19,100,53,20,30.33,30.27,30.20,10,10,10,16,4,23,0.00,0,,338
2013-3-29,66,49,32,43,29,21,100,55,18,30.36,30.29,30.21,10,10,10,9,3,16,0.00,0,,87
2013-3-30,73,58,44,46,42,36,93,60,25,30.26,30.16,30.07,10,10,10,13,4,23,0.00,4,,196
2013-3-31,77,66,55,61,53,46,100,75,41,30.10,30.00,29.90,10,10,1,17,8,31,0.00,6,Rain-Thunderstorm,202